sensor_id;sensor_type;location;lat;lon;timestamp;P1;durP1;ratioP1;P2;durP2;ratioP2
27051;SDS011;14601;49.358;8.256;2022-08-14T00:02:45;5.22;;;3.90;;
27051;SDS011;14601;49.358;8.256;2022-08-14T00:05:49;8.57;;;4.38;;
27051;SDS011;14601;49.358;8.256;2022-08-14T00:08:51;10.60;;;4.30;;
27051;SDS011;14601;49.358;8.256;2022-08-14T00:11:54;6.95;;;4.00;;
27051;SDS011;14601;49.358;8.256;2022-08-14T00:14:56;8.57;;;4.03;;
27051;SDS011;14601;49.358;8.256;2022-08-14T00:17:58;4.88;;;3.90;;
27051;SDS011;14601;49.358;8.256;2022-08-14T00:21:02;8.23;;;3.78;;
27051;SDS011;14601;49.358;8.256;2022-08-14T00:24:05;5.03;;;4.00;;
27051;SDS011;14601;49.358;8.256;2022-08-14T00:27:07;7.88;;;4.05;;
27051;SDS011;14601;49.358;8.256;2022-08-14T00:30:09;7.68;;;3.75;;
27051;SDS011;14601;49.358;8.256;2022-08-14T00:33:12;9.23;;;4.32;;
27051;SDS011;14601;49.358;8.256;2022-08-14T00:36:16;8.52;;;4.28;;
27051;SDS011;14601;49.358;8.256;2022-08-14T00:39:18;8.23;;;4.15;;
27051;SDS011;14601;49.358;8.256;2022-08-14T00:42:20;8.95;;;4.05;;
27051;SDS011;14601;49.358;8.256;2022-08-14T00:45:23;12.02;;;4.55;;
27051;SDS011;14601;49.358;8.256;2022-08-14T00:48:26;6.60;;;4.45;;
27051;SDS011;14601;49.358;8.256;2022-08-14T00:51:29;7.45;;;4.25;;
27051;SDS011;14601;49.358;8.256;2022-08-14T00:54:33;7.65;;;4.40;;
27051;SDS011;14601;49.358;8.256;2022-08-14T00:57:36;4.78;;;3.83;;
27051;SDS011;14601;49.358;8.256;2022-08-14T01:00:39;5.22;;;4.30;;
27051;SDS011;14601;49.358;8.256;2022-08-14T01:03:43;8.25;;;4.35;;
27051;SDS011;14601;49.358;8.256;2022-08-14T01:06:47;4.82;;;4.28;;
27051;SDS011;14601;49.358;8.256;2022-08-14T01:09:52;9.73;;;4.53;;
27051;SDS011;14601;49.358;8.256;2022-08-14T01:12:55;5.07;;;4.07;;
27051;SDS011;14601;49.358;8.256;2022-08-14T01:16:00;6.20;;;4.35;;
27051;SDS011;14601;49.358;8.256;2022-08-14T01:19:03;6.57;;;4.40;;
27051;SDS011;14601;49.358;8.256;2022-08-14T01:22:24;10.23;;;4.55;;
27051;SDS011;14601;49.358;8.256;2022-08-14T01:25:27;7.63;;;4.68;;
27051;SDS011;14601;49.358;8.256;2022-08-14T01:28:29;4.65;;;4.22;;
27051;SDS011;14601;49.358;8.256;2022-08-14T01:31:37;5.10;;;4.60;;
27051;SDS011;14601;49.358;8.256;2022-08-14T01:34:41;6.30;;;4.80;;
27051;SDS011;14601;49.358;8.256;2022-08-14T01:37:44;5.85;;;5.20;;
27051;SDS011;14601;49.358;8.256;2022-08-14T01:40:48;7.10;;;4.18;;
27051;SDS011;14601;49.358;8.256;2022-08-14T01:43:52;6.82;;;4.68;;
27051;SDS011;14601;49.358;8.256;2022-08-14T01:46:59;5.35;;;4.18;;
27051;SDS011;14601;49.358;8.256;2022-08-14T01:50:04;6.47;;;4.40;;
27051;SDS011;14601;49.358;8.256;2022-08-14T01:53:08;9.57;;;4.63;;
27051;SDS011;14601;49.358;8.256;2022-08-14T01:56:11;9.45;;;4.95;;
27051;SDS011;14601;49.358;8.256;2022-08-14T01:59:18;7.70;;;4.43;;
27051;SDS011;14601;49.358;8.256;2022-08-14T02:02:22;5.20;;;4.65;;
27051;SDS011;14601;49.358;8.256;2022-08-14T02:05:24;8.40;;;4.82;;
27051;SDS011;14601;49.358;8.256;2022-08-14T02:08:29;5.15;;;4.75;;
27051;SDS011;14601;49.358;8.256;2022-08-14T02:11:32;7.28;;;4.60;;
27051;SDS011;14601;49.358;8.256;2022-08-14T02:14:34;11.63;;;5.00;;
27051;SDS011;14601;49.358;8.256;2022-08-14T02:17:37;8.05;;;4.82;;
27051;SDS011;14601;49.358;8.256;2022-08-14T02:20:39;5.60;;;4.60;;
27051;SDS011;14601;49.358;8.256;2022-08-14T02:23:42;6.13;;;4.82;;
27051;SDS011;14601;49.358;8.256;2022-08-14T02:26:45;8.40;;;4.75;;
27051;SDS011;14601;49.358;8.256;2022-08-14T02:29:49;7.50;;;4.93;;
27051;SDS011;14601;49.358;8.256;2022-08-14T02:32:53;5.90;;;4.97;;
27051;SDS011;14601;49.358;8.256;2022-08-14T02:35:55;5.60;;;5.10;;
27051;SDS011;14601;49.358;8.256;2022-08-14T02:38:58;5.45;;;4.93;;
27051;SDS011;14601;49.358;8.256;2022-08-14T02:42:00;5.22;;;4.72;;
27051;SDS011;14601;49.358;8.256;2022-08-14T02:45:02;6.45;;;4.88;;
27051;SDS011;14601;49.358;8.256;2022-08-14T02:48:05;5.32;;;4.82;;
27051;SDS011;14601;49.358;8.256;2022-08-14T02:51:08;6.82;;;4.68;;
27051;SDS011;14601;49.358;8.256;2022-08-14T02:54:13;7.88;;;5.10;;
27051;SDS011;14601;49.358;8.256;2022-08-14T02:57:16;6.57;;;5.03;;
27051;SDS011;14601;49.358;8.256;2022-08-14T03:00:18;5.15;;;4.75;;
27051;SDS011;14601;49.358;8.256;2022-08-14T03:03:21;8.65;;;4.90;;
27051;SDS011;14601;49.358;8.256;2022-08-14T03:06:24;7.72;;;5.10;;
27051;SDS011;14601;49.358;8.256;2022-08-14T03:09:27;5.50;;;5.00;;
27051;SDS011;14601;49.358;8.256;2022-08-14T03:12:29;5.65;;;5.22;;
27051;SDS011;14601;49.358;8.256;2022-08-14T03:15:31;5.75;;;5.25;;
27051;SDS011;14601;49.358;8.256;2022-08-14T03:18:37;5.45;;;5.05;;
27051;SDS011;14601;49.358;8.256;2022-08-14T03:21:41;6.53;;;5.22;;
27051;SDS011;14601;49.358;8.256;2022-08-14T03:24:44;5.93;;;5.32;;
27051;SDS011;14601;49.358;8.256;2022-08-14T03:27:47;5.82;;;5.32;;
27051;SDS011;14601;49.358;8.256;2022-08-14T03:30:49;6.18;;;5.57;;
27051;SDS011;14601;49.358;8.256;2022-08-14T03:33:50;6.55;;;5.90;;
27051;SDS011;14601;49.358;8.256;2022-08-14T03:36:52;6.65;;;5.70;;
27051;SDS011;14601;49.358;8.256;2022-08-14T03:39:58;6.05;;;5.55;;
27051;SDS011;14601;49.358;8.256;2022-08-14T03:43:00;5.78;;;5.28;;
27051;SDS011;14601;49.358;8.256;2022-08-14T03:46:04;6.20;;;5.25;;
27051;SDS011;14601;49.358;8.256;2022-08-14T03:49:06;6.75;;;5.78;;
27051;SDS011;14601;49.358;8.256;2022-08-14T03:52:09;7.03;;;5.63;;
27051;SDS011;14601;49.358;8.256;2022-08-14T03:55:13;7.55;;;6.28;;
27051;SDS011;14601;49.358;8.256;2022-08-14T03:58:15;6.15;;;5.47;;
27051;SDS011;14601;49.358;8.256;2022-08-14T04:01:18;7.80;;;5.88;;
27051;SDS011;14601;49.358;8.256;2022-08-14T04:04:22;6.85;;;5.90;;
27051;SDS011;14601;49.358;8.256;2022-08-14T04:07:24;6.32;;;5.35;;
27051;SDS011;14601;49.358;8.256;2022-08-14T04:10:27;7.32;;;5.80;;
27051;SDS011;14601;49.358;8.256;2022-08-14T04:13:29;7.45;;;6.05;;
27051;SDS011;14601;49.358;8.256;2022-08-14T04:16:32;13.55;;;5.75;;
27051;SDS011;14601;49.358;8.256;2022-08-14T04:19:34;7.43;;;5.65;;
27051;SDS011;14601;49.358;8.256;2022-08-14T04:22:36;9.77;;;6.13;;
27051;SDS011;14601;49.358;8.256;2022-08-14T04:25:42;7.67;;;5.80;;
27051;SDS011;14601;49.358;8.256;2022-08-14T04:28:44;6.28;;;5.57;;
27051;SDS011;14601;49.358;8.256;2022-08-14T04:31:47;7.97;;;6.30;;
27051;SDS011;14601;49.358;8.256;2022-08-14T04:34:50;6.75;;;6.18;;
27051;SDS011;14601;49.358;8.256;2022-08-14T04:37:52;7.07;;;6.38;;
27051;SDS011;14601;49.358;8.256;2022-08-14T04:41:13;7.18;;;5.45;;
27051;SDS011;14601;49.358;8.256;2022-08-14T04:44:32;6.43;;;5.80;;
27051;SDS011;14601;49.358;8.256;2022-08-14T04:47:36;8.40;;;5.93;;
27051;SDS011;14601;49.358;8.256;2022-08-14T04:50:55;9.52;;;6.22;;
27051;SDS011;14601;49.358;8.256;2022-08-14T04:53:57;11.43;;;6.07;;
27051;SDS011;14601;49.358;8.256;2022-08-14T04:57:01;9.70;;;6.05;;
27051;SDS011;14601;49.358;8.256;2022-08-14T05:00:04;9.23;;;5.80;;
27051;SDS011;14601;49.358;8.256;2022-08-14T05:03:08;6.40;;;5.80;;
27051;SDS011;14601;49.358;8.256;2022-08-14T05:06:11;6.80;;;5.93;;
27051;SDS011;14601;49.358;8.256;2022-08-14T05:09:13;6.80;;;6.05;;
27051;SDS011;14601;49.358;8.256;2022-08-14T05:12:16;7.68;;;6.78;;
27051;SDS011;14601;49.358;8.256;2022-08-14T05:15:18;7.90;;;6.82;;
27051;SDS011;14601;49.358;8.256;2022-08-14T05:18:21;8.10;;;6.53;;
27051;SDS011;14601;49.358;8.256;2022-08-14T05:21:25;9.68;;;6.63;;
27051;SDS011;14601;49.358;8.256;2022-08-14T05:24:28;8.55;;;6.10;;
27051;SDS011;14601;49.358;8.256;2022-08-14T05:27:31;9.68;;;6.93;;
27051;SDS011;14601;49.358;8.256;2022-08-14T05:30:33;10.35;;;6.88;;
27051;SDS011;14601;49.358;8.256;2022-08-14T05:33:35;8.82;;;6.75;;
27051;SDS011;14601;49.358;8.256;2022-08-14T05:36:37;10.50;;;6.53;;
27051;SDS011;14601;49.358;8.256;2022-08-14T05:39:39;7.82;;;6.97;;
27051;SDS011;14601;49.358;8.256;2022-08-14T05:42:43;8.68;;;7.07;;
27051;SDS011;14601;49.358;8.256;2022-08-14T05:45:45;11.52;;;7.60;;
27051;SDS011;14601;49.358;8.256;2022-08-14T05:48:47;11.23;;;8.65;;
27051;SDS011;14601;49.358;8.256;2022-08-14T05:51:49;9.23;;;8.30;;
27051;SDS011;14601;49.358;8.256;2022-08-14T05:54:51;10.35;;;9.18;;
27051;SDS011;14601;49.358;8.256;2022-08-14T05:57:55;10.43;;;9.43;;
27051;SDS011;14601;49.358;8.256;2022-08-14T06:00:58;16.67;;;10.20;;
27051;SDS011;14601;49.358;8.256;2022-08-14T06:04:00;12.15;;;10.77;;
27051;SDS011;14601;49.358;8.256;2022-08-14T06:07:02;12.38;;;10.52;;
27051;SDS011;14601;49.358;8.256;2022-08-14T06:10:04;15.25;;;11.23;;
27051;SDS011;14601;49.358;8.256;2022-08-14T06:13:09;13.30;;;11.25;;
27051;SDS011;14601;49.358;8.256;2022-08-14T06:16:10;18.33;;;13.18;;
27051;SDS011;14601;49.358;8.256;2022-08-14T06:19:14;15.38;;;13.77;;
27051;SDS011;14601;49.358;8.256;2022-08-14T06:22:17;16.20;;;12.88;;
27051;SDS011;14601;49.358;8.256;2022-08-14T06:25:19;19.17;;;16.08;;
27051;SDS011;14601;49.358;8.256;2022-08-14T06:28:22;16.92;;;15.13;;
27051;SDS011;14601;49.358;8.256;2022-08-14T06:31:26;19.88;;;16.20;;
27051;SDS011;14601;49.358;8.256;2022-08-14T06:34:28;19.10;;;17.05;;
27051;SDS011;14601;49.358;8.256;2022-08-14T06:37:37;23.90;;;16.20;;
27051;SDS011;14601;49.358;8.256;2022-08-14T06:40:40;19.90;;;16.88;;
27051;SDS011;14601;49.358;8.256;2022-08-14T06:43:43;18.42;;;15.50;;
27051;SDS011;14601;49.358;8.256;2022-08-14T06:46:45;17.38;;;15.57;;
27051;SDS011;14601;49.358;8.256;2022-08-14T06:49:47;20.50;;;16.27;;
27051;SDS011;14601;49.358;8.256;2022-08-14T06:52:48;18.67;;;15.30;;
27051;SDS011;14601;49.358;8.256;2022-08-14T06:55:50;19.95;;;15.77;;
27051;SDS011;14601;49.358;8.256;2022-08-14T06:58:54;18.48;;;16.48;;
27051;SDS011;14601;49.358;8.256;2022-08-14T07:01:56;18.27;;;15.35;;
27051;SDS011;14601;49.358;8.256;2022-08-14T07:05:15;18.40;;;15.23;;
27051;SDS011;14601;49.358;8.256;2022-08-14T07:08:35;17.88;;;15.10;;
27051;SDS011;14601;49.358;8.256;2022-08-14T07:11:37;19.65;;;15.38;;
27051;SDS011;14601;49.358;8.256;2022-08-14T07:14:40;21.65;;;16.27;;
27051;SDS011;14601;49.358;8.256;2022-08-14T07:17:43;17.50;;;15.50;;
27051;SDS011;14601;49.358;8.256;2022-08-14T07:20:45;18.50;;;15.02;;
27051;SDS011;14601;49.358;8.256;2022-08-14T07:23:47;16.48;;;14.05;;
27051;SDS011;14601;49.358;8.256;2022-08-14T07:26:49;16.98;;;15.02;;
27051;SDS011;14601;49.358;8.256;2022-08-14T07:29:52;16.33;;;14.60;;
27051;SDS011;14601;49.358;8.256;2022-08-14T07:32:54;17.23;;;13.95;;
27051;SDS011;14601;49.358;8.256;2022-08-14T07:36:00;17.60;;;12.90;;
27051;SDS011;14601;49.358;8.256;2022-08-14T07:39:04;14.70;;;12.95;;
27051;SDS011;14601;49.358;8.256;2022-08-14T07:42:06;14.30;;;12.43;;
27051;SDS011;14601;49.358;8.256;2022-08-14T07:45:09;18.08;;;11.75;;
27051;SDS011;14601;49.358;8.256;2022-08-14T07:48:13;14.85;;;10.50;;
27051;SDS011;14601;49.358;8.256;2022-08-14T07:51:14;13.43;;;10.80;;
27051;SDS011;14601;49.358;8.256;2022-08-14T07:54:19;12.30;;;9.40;;
27051;SDS011;14601;49.358;8.256;2022-08-14T07:57:21;11.77;;;8.35;;
27051;SDS011;14601;49.358;8.256;2022-08-14T08:00:24;9.85;;;8.60;;
27051;SDS011;14601;49.358;8.256;2022-08-14T08:03:28;9.48;;;7.93;;
27051;SDS011;14601;49.358;8.256;2022-08-14T08:06:34;10.98;;;7.90;;
27051;SDS011;14601;49.358;8.256;2022-08-14T08:09:37;11.75;;;8.45;;
27051;SDS011;14601;49.358;8.256;2022-08-14T08:12:44;7.13;;;6.53;;
27051;SDS011;14601;49.358;8.256;2022-08-14T08:15:48;10.25;;;7.55;;
27051;SDS011;14601;49.358;8.256;2022-08-14T08:18:52;7.50;;;6.65;;
27051;SDS011;14601;49.358;8.256;2022-08-14T08:21:55;9.48;;;7.07;;
27051;SDS011;14601;49.358;8.256;2022-08-14T08:24:58;10.57;;;5.57;;
27051;SDS011;14601;49.358;8.256;2022-08-14T08:28:00;8.55;;;5.70;;
27051;SDS011;14601;49.358;8.256;2022-08-14T08:31:05;9.50;;;5.70;;
27051;SDS011;14601;49.358;8.256;2022-08-14T08:34:08;9.15;;;6.68;;
27051;SDS011;14601;49.358;8.256;2022-08-14T08:37:09;8.65;;;6.93;;
27051;SDS011;14601;49.358;8.256;2022-08-14T08:40:20;7.50;;;6.47;;
27051;SDS011;14601;49.358;8.256;2022-08-14T08:43:24;7.18;;;6.53;;
27051;SDS011;14601;49.358;8.256;2022-08-14T08:46:31;6.45;;;5.32;;
27051;SDS011;14601;49.358;8.256;2022-08-14T08:49:34;7.43;;;6.10;;
27051;SDS011;14601;49.358;8.256;2022-08-14T08:52:45;9.20;;;6.45;;
27051;SDS011;14601;49.358;8.256;2022-08-14T08:55:48;6.43;;;5.80;;
27051;SDS011;14601;49.358;8.256;2022-08-14T08:58:50;9.38;;;7.05;;
27051;SDS011;14601;49.358;8.256;2022-08-14T09:01:54;8.45;;;7.22;;
27051;SDS011;14601;49.358;8.256;2022-08-14T09:05:00;8.32;;;6.43;;
27051;SDS011;14601;49.358;8.256;2022-08-14T09:08:12;7.40;;;6.28;;
27051;SDS011;14601;49.358;8.256;2022-08-14T09:11:16;7.85;;;5.68;;
27051;SDS011;14601;49.358;8.256;2022-08-14T09:14:17;12.45;;;6.70;;
27051;SDS011;14601;49.358;8.256;2022-08-14T09:17:21;8.45;;;5.82;;
27051;SDS011;14601;49.358;8.256;2022-08-14T09:20:24;11.45;;;6.35;;
27051;SDS011;14601;49.358;8.256;2022-08-14T09:23:26;13.27;;;6.63;;
27051;SDS011;14601;49.358;8.256;2022-08-14T09:26:28;8.50;;;6.25;;
27051;SDS011;14601;49.358;8.256;2022-08-14T09:29:30;6.80;;;6.07;;
27051;SDS011;14601;49.358;8.256;2022-08-14T09:32:37;7.57;;;6.30;;
27051;SDS011;14601;49.358;8.256;2022-08-14T09:35:48;9.68;;;6.70;;
27051;SDS011;14601;49.358;8.256;2022-08-14T09:39:04;7.28;;;6.60;;
27051;SDS011;14601;49.358;8.256;2022-08-14T09:42:15;7.57;;;6.65;;
27051;SDS011;14601;49.358;8.256;2022-08-14T09:45:30;7.55;;;6.72;;
27051;SDS011;14601;49.358;8.256;2022-08-14T09:48:38;10.15;;;5.10;;
27051;SDS011;14601;49.358;8.256;2022-08-14T09:51:40;6.13;;;4.80;;
27051;SDS011;14601;49.358;8.256;2022-08-14T09:54:44;5.63;;;4.70;;
27051;SDS011;14601;49.358;8.256;2022-08-14T09:57:48;7.43;;;4.65;;
27051;SDS011;14601;49.358;8.256;2022-08-14T10:00:52;4.53;;;4.20;;
27051;SDS011;14601;49.358;8.256;2022-08-14T10:03:59;10.82;;;4.30;;
27051;SDS011;14601;49.358;8.256;2022-08-14T10:07:04;5.03;;;4.25;;
27051;SDS011;14601;49.358;8.256;2022-08-14T10:10:06;8.93;;;4.68;;
27051;SDS011;14601;49.358;8.256;2022-08-14T10:13:19;7.05;;;4.97;;
27051;SDS011;14601;49.358;8.256;2022-08-14T10:16:23;4.63;;;4.20;;
27051;SDS011;14601;49.358;8.256;2022-08-14T10:19:29;6.47;;;3.80;;
27051;SDS011;14601;49.358;8.256;2022-08-14T10:22:30;6.95;;;3.90;;
27051;SDS011;14601;49.358;8.256;2022-08-14T10:25:38;3.67;;;3.33;;
27051;SDS011;14601;49.358;8.256;2022-08-14T10:28:43;6.40;;;3.22;;
27051;SDS011;14601;49.358;8.256;2022-08-14T10:31:55;3.78;;;3.47;;
27051;SDS011;14601;49.358;8.256;2022-08-14T10:35:06;3.75;;;3.45;;
27051;SDS011;14601;49.358;8.256;2022-08-14T10:38:11;3.58;;;3.28;;
27051;SDS011;14601;49.358;8.256;2022-08-14T10:41:14;5.18;;;3.15;;
27051;SDS011;14601;49.358;8.256;2022-08-14T10:44:20;5.45;;;3.50;;
27051;SDS011;14601;49.358;8.256;2022-08-14T10:47:32;4.15;;;3.35;;
27051;SDS011;14601;49.358;8.256;2022-08-14T10:50:40;4.28;;;3.45;;
27051;SDS011;14601;49.358;8.256;2022-08-14T10:53:52;6.45;;;3.08;;
27051;SDS011;14601;49.358;8.256;2022-08-14T10:56:55;9.50;;;3.55;;
27051;SDS011;14601;49.358;8.256;2022-08-14T10:59:58;2.80;;;2.60;;
27051;SDS011;14601;49.358;8.256;2022-08-14T11:03:01;3.30;;;3.00;;
27051;SDS011;14601;49.358;8.256;2022-08-14T11:06:14;6.80;;;3.20;;
27051;SDS011;14601;49.358;8.256;2022-08-14T11:09:19;5.55;;;2.95;;
27051;SDS011;14601;49.358;8.256;2022-08-14T11:12:21;3.00;;;2.80;;
27051;SDS011;14601;49.358;8.256;2022-08-14T11:15:24;3.17;;;2.38;;
27051;SDS011;14601;49.358;8.256;2022-08-14T11:18:28;5.20;;;2.50;;
27051;SDS011;14601;49.358;8.256;2022-08-14T11:21:32;2.78;;;2.58;;
27051;SDS011;14601;49.358;8.256;2022-08-14T11:24:39;2.92;;;2.72;;
27051;SDS011;14601;49.358;8.256;2022-08-14T11:27:44;2.30;;;2.20;;
27051;SDS011;14601;49.358;8.256;2022-08-14T11:30:48;3.05;;;2.17;;
27051;SDS011;14601;49.358;8.256;2022-08-14T11:33:52;3.72;;;2.50;;
27051;SDS011;14601;49.358;8.256;2022-08-14T11:36:58;4.70;;;3.20;;
27051;SDS011;14601;49.358;8.256;2022-08-14T11:40:14;3.28;;;2.30;;
27051;SDS011;14601;49.358;8.256;2022-08-14T11:43:16;3.92;;;2.30;;
27051;SDS011;14601;49.358;8.256;2022-08-14T11:46:19;4.32;;;2.58;;
27051;SDS011;14601;49.358;8.256;2022-08-14T11:49:24;5.07;;;2.42;;
27051;SDS011;14601;49.358;8.256;2022-08-14T11:52:34;2.45;;;2.25;;
27051;SDS011;14601;49.358;8.256;2022-08-14T11:55:37;4.50;;;2.38;;
27051;SDS011;14601;49.358;8.256;2022-08-14T11:58:39;3.30;;;2.50;;
27051;SDS011;14601;49.358;8.256;2022-08-14T12:01:41;5.22;;;2.58;;
27051;SDS011;14601;49.358;8.256;2022-08-14T12:04:48;2.13;;;2.03;;
27051;SDS011;14601;49.358;8.256;2022-08-14T12:07:52;2.80;;;2.50;;
27051;SDS011;14601;49.358;8.256;2022-08-14T12:10:55;3.50;;;2.22;;
27051;SDS011;14601;49.358;8.256;2022-08-14T12:14:05;2.72;;;2.50;;
27051;SDS011;14601;49.358;8.256;2022-08-14T12:17:08;3.55;;;2.67;;
27051;SDS011;14601;49.358;8.256;2022-08-14T12:20:10;3.05;;;2.60;;
27051;SDS011;14601;49.358;8.256;2022-08-14T12:23:20;3.00;;;2.40;;
27051;SDS011;14601;49.358;8.256;2022-08-14T12:26:25;5.50;;;2.88;;
27051;SDS011;14601;49.358;8.256;2022-08-14T12:29:27;2.60;;;2.50;;
27051;SDS011;14601;49.358;8.256;2022-08-14T12:32:37;2.65;;;2.40;;
27051;SDS011;14601;49.358;8.256;2022-08-14T12:35:41;2.80;;;2.50;;
27051;SDS011;14601;49.358;8.256;2022-08-14T12:41:51;6.30;;;2.50;;
27051;SDS011;14601;49.358;8.256;2022-08-14T12:44:55;2.80;;;2.47;;
27051;SDS011;14601;49.358;8.256;2022-08-14T12:47:59;4.88;;;2.50;;
27051;SDS011;14601;49.358;8.256;2022-08-14T12:51:02;2.58;;;2.10;;
27051;SDS011;14601;49.358;8.256;2022-08-14T12:54:12;4.07;;;2.42;;
27051;SDS011;14601;49.358;8.256;2022-08-14T12:57:16;4.53;;;2.30;;
27051;SDS011;14601;49.358;8.256;2022-08-14T13:00:19;3.80;;;2.40;;
27051;SDS011;14601;49.358;8.256;2022-08-14T13:03:23;4.50;;;2.55;;
27051;SDS011;14601;49.358;8.256;2022-08-14T13:06:26;3.03;;;2.47;;
27051;SDS011;14601;49.358;8.256;2022-08-14T13:09:30;3.15;;;2.20;;
27051;SDS011;14601;49.358;8.256;2022-08-14T13:12:32;2.72;;;2.33;;
27051;SDS011;14601;49.358;8.256;2022-08-14T13:15:34;4.85;;;2.38;;
27051;SDS011;14601;49.358;8.256;2022-08-14T13:18:37;2.58;;;2.05;;
27051;SDS011;14601;49.358;8.256;2022-08-14T13:21:42;7.15;;;2.40;;
27051;SDS011;14601;49.358;8.256;2022-08-14T13:24:46;3.88;;;2.10;;
27051;SDS011;14601;49.358;8.256;2022-08-14T13:27:49;2.20;;;2.10;;
27051;SDS011;14601;49.358;8.256;2022-08-14T13:30:54;2.35;;;2.10;;
27051;SDS011;14601;49.358;8.256;2022-08-14T13:37:02;2.65;;;2.40;;
27051;SDS011;14601;49.358;8.256;2022-08-14T13:40:08;2.47;;;2.28;;
27051;SDS011;14601;49.358;8.256;2022-08-14T13:43:11;5.40;;;2.33;;
27051;SDS011;14601;49.358;8.256;2022-08-14T13:46:13;2.60;;;2.40;;
27051;SDS011;14601;49.358;8.256;2022-08-14T13:49:16;3.22;;;2.30;;
27051;SDS011;14601;49.358;8.256;2022-08-14T13:52:19;3.78;;;2.30;;
27051;SDS011;14601;49.358;8.256;2022-08-14T13:55:23;4.50;;;2.30;;
27051;SDS011;14601;49.358;8.256;2022-08-14T13:58:27;2.40;;;2.20;;
27051;SDS011;14601;49.358;8.256;2022-08-14T14:01:34;2.03;;;1.80;;
27051;SDS011;14601;49.358;8.256;2022-08-14T14:04:39;4.07;;;2.13;;
27051;SDS011;14601;49.358;8.256;2022-08-14T14:07:43;2.17;;;2.03;;
27051;SDS011;14601;49.358;8.256;2022-08-14T14:10:47;4.20;;;2.10;;
27051;SDS011;14601;49.358;8.256;2022-08-14T14:13:50;2.50;;;2.13;;
27051;SDS011;14601;49.358;8.256;2022-08-14T14:16:54;2.22;;;2.10;;
27051;SDS011;14601;49.358;8.256;2022-08-14T14:19:56;4.60;;;2.03;;
27051;SDS011;14601;49.358;8.256;2022-08-14T14:22:59;2.47;;;2.03;;
27051;SDS011;14601;49.358;8.256;2022-08-14T14:26:02;3.10;;;2.33;;
27051;SDS011;14601;49.358;8.256;2022-08-14T14:29:05;4.80;;;2.25;;
27051;SDS011;14601;49.358;8.256;2022-08-14T14:32:08;3.45;;;2.13;;
27051;SDS011;14601;49.358;8.256;2022-08-14T14:35:12;4.15;;;2.33;;
27051;SDS011;14601;49.358;8.256;2022-08-14T14:38:15;2.80;;;2.28;;
27051;SDS011;14601;49.358;8.256;2022-08-14T14:41:19;2.83;;;1.98;;
27051;SDS011;14601;49.358;8.256;2022-08-14T14:44:24;2.67;;;2.00;;
27051;SDS011;14601;49.358;8.256;2022-08-14T14:47:31;1.90;;;1.80;;
27051;SDS011;14601;49.358;8.256;2022-08-14T14:50:34;3.22;;;2.00;;
27051;SDS011;14601;49.358;8.256;2022-08-14T14:53:37;3.40;;;2.22;;
27051;SDS011;14601;49.358;8.256;2022-08-14T14:56:41;2.60;;;2.40;;
27051;SDS011;14601;49.358;8.256;2022-08-14T14:59:43;2.50;;;2.30;;
27051;SDS011;14601;49.358;8.256;2022-08-14T15:02:47;2.50;;;2.30;;
27051;SDS011;14601;49.358;8.256;2022-08-14T15:05:50;3.08;;;1.80;;
27051;SDS011;14601;49.358;8.256;2022-08-14T15:08:52;2.45;;;2.10;;
27051;SDS011;14601;49.358;8.256;2022-08-14T15:11:56;4.03;;;2.20;;
27051;SDS011;14601;49.358;8.256;2022-08-14T15:14:57;5.20;;;2.20;;
27051;SDS011;14601;49.358;8.256;2022-08-14T15:17:59;2.10;;;2.00;;
27051;SDS011;14601;49.358;8.256;2022-08-14T15:21:02;2.58;;;2.45;;
27051;SDS011;14601;49.358;8.256;2022-08-14T15:24:04;4.15;;;2.20;;
27051;SDS011;14601;49.358;8.256;2022-08-14T15:27:08;2.25;;;2.05;;
27051;SDS011;14601;49.358;8.256;2022-08-14T15:30:11;3.10;;;1.90;;
27051;SDS011;14601;49.358;8.256;2022-08-14T15:33:13;3.10;;;2.53;;
27051;SDS011;14601;49.358;8.256;2022-08-14T15:36:36;2.30;;;2.08;;
27051;SDS011;14601;49.358;8.256;2022-08-14T15:39:40;1.67;;;1.58;;
27051;SDS011;14601;49.358;8.256;2022-08-14T15:42:43;2.65;;;2.20;;
27051;SDS011;14601;49.358;8.256;2022-08-14T15:45:45;1.90;;;1.80;;
27051;SDS011;14601;49.358;8.256;2022-08-14T15:48:47;5.72;;;1.80;;
27051;SDS011;14601;49.358;8.256;2022-08-14T15:51:49;2.03;;;1.80;;
27051;SDS011;14601;49.358;8.256;2022-08-14T15:54:51;3.78;;;2.00;;
27051;SDS011;14601;49.358;8.256;2022-08-14T15:57:54;1.92;;;1.83;;
27051;SDS011;14601;49.358;8.256;2022-08-14T16:00:56;5.60;;;1.90;;
27051;SDS011;14601;49.358;8.256;2022-08-14T16:04:16;2.08;;;1.83;;
27051;SDS011;14601;49.358;8.256;2022-08-14T16:07:19;2.30;;;2.00;;
27051;SDS011;14601;49.358;8.256;2022-08-14T16:10:21;3.53;;;2.75;;
27051;SDS011;14601;49.358;8.256;2022-08-14T16:13:25;3.15;;;1.95;;
27051;SDS011;14601;49.358;8.256;2022-08-14T16:19:30;2.65;;;2.10;;
27051;SDS011;14601;49.358;8.256;2022-08-14T16:22:32;2.58;;;2.10;;
27051;SDS011;14601;49.358;8.256;2022-08-14T16:25:35;2.42;;;1.90;;
27051;SDS011;14601;49.358;8.256;2022-08-14T16:28:40;3.70;;;2.10;;
27051;SDS011;14601;49.358;8.256;2022-08-14T16:31:42;2.28;;;2.08;;
27051;SDS011;14601;49.358;8.256;2022-08-14T16:34:44;1.92;;;1.83;;
27051;SDS011;14601;49.358;8.256;2022-08-14T16:37:47;3.00;;;1.90;;
27051;SDS011;14601;49.358;8.256;2022-08-14T16:40:50;3.08;;;1.95;;
27051;SDS011;14601;49.358;8.256;2022-08-14T16:44:14;4.13;;;2.00;;
27051;SDS011;14601;49.358;8.256;2022-08-14T16:47:17;5.22;;;2.00;;
27051;SDS011;14601;49.358;8.256;2022-08-14T16:50:19;3.80;;;2.20;;
27051;SDS011;14601;49.358;8.256;2022-08-14T16:53:21;2.92;;;2.22;;
27051;SDS011;14601;49.358;8.256;2022-08-14T16:56:25;3.45;;;2.30;;
27051;SDS011;14601;49.358;8.256;2022-08-14T16:59:31;2.17;;;2.07;;
27051;SDS011;14601;49.358;8.256;2022-08-14T17:02:35;2.70;;;2.50;;
27051;SDS011;14601;49.358;8.256;2022-08-14T17:05:39;2.17;;;1.92;;
27051;SDS011;14601;49.358;8.256;2022-08-14T17:08:42;2.65;;;2.42;;
27051;SDS011;14601;49.358;8.256;2022-08-14T17:11:48;3.22;;;2.22;;
27051;SDS011;14601;49.358;8.256;2022-08-14T17:14:56;2.47;;;2.17;;
27051;SDS011;14601;49.358;8.256;2022-08-14T17:18:02;3.17;;;2.40;;
27051;SDS011;14601;49.358;8.256;2022-08-14T17:21:14;3.00;;;2.53;;
27051;SDS011;14601;49.358;8.256;2022-08-14T17:24:17;2.75;;;2.45;;
27051;SDS011;14601;49.358;8.256;2022-08-14T17:30:26;4.75;;;3.28;;
27051;SDS011;14601;49.358;8.256;2022-08-14T17:33:48;2.85;;;2.60;;
27051;SDS011;14601;49.358;8.256;2022-08-14T17:36:53;3.40;;;2.30;;
27051;SDS011;14601;49.358;8.256;2022-08-14T17:39:59;6.63;;;2.40;;
27051;SDS011;14601;49.358;8.256;2022-08-14T17:43:02;5.75;;;2.70;;
27051;SDS011;14601;49.358;8.256;2022-08-14T17:46:05;5.68;;;2.65;;
27051;SDS011;14601;49.358;8.256;2022-08-14T17:49:08;4.05;;;2.67;;
27051;SDS011;14601;49.358;8.256;2022-08-14T17:52:12;4.20;;;2.13;;
27051;SDS011;14601;49.358;8.256;2022-08-14T17:55:15;2.20;;;2.00;;
27051;SDS011;14601;49.358;8.256;2022-08-14T17:58:18;3.58;;;2.22;;
27051;SDS011;14601;49.358;8.256;2022-08-14T18:01:24;6.10;;;2.20;;
27051;SDS011;14601;49.358;8.256;2022-08-14T18:04:29;7.40;;;2.75;;
27051;SDS011;14601;49.358;8.256;2022-08-14T18:07:32;9.23;;;2.60;;
27051;SDS011;14601;49.358;8.256;2022-08-14T18:10:36;5.97;;;2.80;;
27051;SDS011;14601;49.358;8.256;2022-08-14T18:13:39;6.88;;;4.53;;
27051;SDS011;14601;49.358;8.256;2022-08-14T18:16:43;6.03;;;4.35;;
27051;SDS011;14601;49.358;8.256;2022-08-14T18:19:46;4.10;;;3.33;;
27051;SDS011;14601;49.358;8.256;2022-08-14T18:22:49;6.45;;;3.25;;
27051;SDS011;14601;49.358;8.256;2022-08-14T18:25:52;3.53;;;3.03;;
27051;SDS011;14601;49.358;8.256;2022-08-14T18:28:54;4.45;;;3.17;;
27051;SDS011;14601;49.358;8.256;2022-08-14T18:32:01;7.45;;;3.35;;
27051;SDS011;14601;49.358;8.256;2022-08-14T18:35:10;7.50;;;3.85;;
27051;SDS011;14601;49.358;8.256;2022-08-14T18:38:15;7.25;;;3.45;;